Time;durP1;ratioP1;P1;durP2;ratioP2;P2;SDS_P1;SDS_P2;PMS_P1;PMS_P2;Temp;Humidity;BMP_temperature;BMP_pressure;BME280_temperature;BME280_humidity;BME280_pressure;Samples;Min_cycle;Max_cycle;Signal;HPM_P1;HPM_P2
2021/07/27 00:02:03;;;;;;;18.80;7.67;;;;;;;20.41;64.94;101139.98;1765518;80;21730;-59
2021/07/27 00:05:06;;;;;;;14.43;7.60;;;;;;;20.39;64.35;101135.73;1750558;82;21397;-59
2021/07/27 00:08:12;;;;;;;21.65;8.30;;;;;;;20.36;64.09;101138.40;1764042;81;21756;-59
2021/07/27 00:11:20;;;;;;;26.17;8.75;;;;;;;20.32;64.06;101137.67;1750656;82;21260;-60
2021/07/27 00:14:27;;;;;;;18.25;8.68;;;;;;;20.26;64.30;101132.48;1763921;81;21201;-60
2021/07/27 00:17:33;;;;;;;22.15;8.78;;;;;;;20.21;64.55;101137.84;1750709;81;21355;-60
2021/07/27 00:20:38;;;;;;;20.82;8.45;;;;;;;20.17;64.88;101134.33;1744690;81;21832;-60
2021/07/27 00:23:45;;;;;;;16.65;8.58;;;;;;;20.11;65.03;101137.94;1756686;81;21217;-60
2021/07/27 00:26:51;;;;;;;17.62;8.08;;;;;;;20.06;65.01;101134.98;1741199;82;21362;-59
2021/07/27 00:29:56;;;;;;;23.45;8.30;;;;;;;19.98;64.96;101134.66;1756782;81;21235;-59
2021/07/27 00:33:01;;;;;;;19.52;8.15;;;;;;;20.00;65.04;101133.05;1741271;82;21355;-59
2021/07/27 00:36:09;;;;;;;22.62;8.70;;;;;;;20.04;65.09;101135.73;1756753;81;21789;-59
2021/07/27 00:39:16;;;;;;;17.37;8.43;;;;;;;20.07;64.91;101133.90;1723344;82;21252;-59
2021/07/27 00:42:26;;;;;;;22.70;8.93;;;;;;;20.09;64.65;101135.94;1757418;81;21414;-59
2021/07/27 00:45:34;;;;;;;21.65;8.88;;;;;;;20.08;64.12;101135.06;1741489;82;21466;-59
2021/07/27 00:48:41;;;;;;;19.00;8.63;;;;;;;20.06;63.88;101126.09;1757401;81;21930;-59
2021/07/27 00:51:48;;;;;;;23.98;7.92;;;;;;;20.03;63.75;101124.27;1741554;82;21421;-59
2021/07/27 00:54:55;;;;;;;18.77;9.00;;;;;;;20.01;63.65;101132.00;1760641;80;21248;-59
2021/07/27 00:58:02;;;;;;;21.40;9.10;;;;;;;19.93;63.70;101123.90;1740991;82;21298;-59
2021/07/27 01:01:08;;;;;;;16.02;8.83;;;;;;;19.87;63.55;101130.34;1756893;81;21216;-59
2021/07/27 01:04:16;;;;;;;17.75;8.65;;;;;;;19.83;63.86;101127.66;1755219;80;21196;-58
2021/07/27 01:07:23;;;;;;;21.62;9.53;;;;;;;19.81;63.81;101135.35;1765949;81;21312;-59
2021/07/27 01:10:29;;;;;;;21.80;9.25;;;;;;;19.79;63.67;101131.41;1762351;81;21347;-59
2021/07/27 01:13:35;;;;;;;17.98;8.48;;;;;;;19.78;63.52;101132.48;1762245;81;21674;-60
2021/07/27 01:16:44;;;;;;;19.45;8.83;;;;;;;19.77;63.25;101134.09;1762434;81;21201;-60
2021/07/27 01:40:02;;;;;;;125.50;79.97;;;;;;;19.83;63.04;101119.33;1737980;82;21375;-59
2021/07/27 01:43:09;;;;;;;142.03;80.53;;;;;;;19.83;62.48;101120.72;1762133;81;21901;-59
2021/07/27 01:46:17;;;;;;;119.42;70.08;;;;;;;19.85;62.35;101118.58;1762153;81;21354;-59
2021/07/27 01:49:22;;;;;;;104.80;58.10;;;;;;;19.86;62.51;101122.53;1745097;81;21299;-59
2021/07/27 01:52:28;;;;;;;60.08;33.63;;;;;;;19.89;62.15;101126.78;1762479;81;21342;-59
2021/07/27 01:55:37;;;;;;;41.53;23.87;;;;;;;19.87;61.87;101119.22;1762457;81;21384;-59
2021/07/27 01:58:47;;;;;;;35.45;17.98;;;;;;;19.84;61.63;101122.41;1762473;81;21389;-59
2021/07/27 02:01:52;;;;;;;23.98;15.18;;;;;;;19.79;61.60;101122.23;1762459;81;21177;-59
2021/07/27 02:05:00;;;;;;;25.80;11.78;;;;;;;19.78;61.70;101114.95;1766854;80;21216;-59
2021/07/27 02:08:07;;;;;;;21.33;11.55;;;;;;;19.75;61.49;101111.22;1768129;81;21414;-59
2021/07/27 02:11:13;;;;;;;20.85;9.83;;;;;;;19.70;61.38;101111.87;1768692;81;21209;-59
2021/07/27 02:14:18;;;;;;;27.00;10.95;;;;;;;19.67;61.63;101112.84;1768310;81;21291;-59
2021/07/27 02:17:23;;;;;;;23.73;10.28;;;;;;;19.69;61.49;101117.66;1762621;80;21379;-58
2021/07/27 02:20:28;;;;;;;24.37;9.95;;;;;;;19.70;61.40;101118.83;1768020;81;21330;-59
2021/07/27 02:23:52;;;;;;;22.02;10.60;;;;;;;19.72;61.10;101118.61;1768095;81;21382;-58
2021/07/27 02:26:57;;;;;;;24.57;9.55;;;;;;;19.70;60.98;101123.52;1768227;81;21327;-58
2021/07/27 02:30:10;;;;;;;18.75;10.10;;;;;;;19.67;60.88;101128.98;1778538;80;21257;-59
2021/07/27 02:33:15;;;;;;;62.88;27.60;;;;;;;19.63;60.87;101133.81;1751062;80;21290;-59
2021/07/27 02:40:01;;;;;;;68.12;31.60;;;;;;;19.58;61.16;101133.59;1768142;81;21357;-59
2021/07/27 02:43:10;;;;;;;50.98;24.60;;;;;;;19.59;61.40;101131.99;1768201;81;21880;-59
2021/07/27 02:46:17;;;;;;;33.40;16.82;;;;;;;19.62;61.07;101134.33;1768078;81;21374;-59
2021/07/27 02:49:24;;;;;;;23.02;12.37;;;;;;;19.65;61.01;101138.59;1768338;80;21732;-59
2021/07/27 02:52:29;;;;;;;20.65;10.10;;;;;;;19.68;61.08;101138.19;1768111;81;21370;-61
2021/07/27 02:55:34;;;;;;;17.48;8.93;;;;;;;19.71;60.96;101131.63;1768114;80;21389;-59
2021/07/27 02:58:40;;;;;;;19.65;9.85;;;;;;;19.75;60.93;101133.45;1752141;80;21397;-59
2021/07/27 03:01:48;;;;;;;16.00;8.80;;;;;;;19.80;60.82;101130.36;1768045;81;21209;-58
2021/07/27 03:04:55;;;;;;;15.75;8.48;;;;;;;19.87;60.48;101134.51;1766810;79;21369;-56
2021/07/27 03:07:59;;;;;;;19.12;8.88;;;;;;;19.93;60.24;101135.84;1760533;81;21236;-56
2021/07/27 03:11:06;;;;;;;39.78;17.90;;;;;;;19.98;59.85;101131.05;1762437;81;21875;-56
2021/07/27 03:14:12;;;;;;;93.78;41.50;;;;;;;20.03;60.01;101128.44;1762494;81;21347;-56
2021/07/27 03:17:20;;;;;;;97.50;39.10;;;;;;;20.10;59.74;101134.32;1762396;81;21336;-56
2021/07/27 03:20:32;;;;;;;78.50;35.13;;;;;;;20.13;59.59;101135.80;1762531;81;21995;-56
2021/07/27 03:23:37;;;;;;;32.45;15.68;;;;;;;20.15;59.79;101133.13;1755475;81;21843;-56
2021/07/27 03:26:44;;;;;;;19.05;10.85;;;;;;;20.22;59.99;101140.06;1762544;81;21374;-56
2021/07/27 03:29:52;;;;;;;19.42;9.60;;;;;;;20.29;59.76;101136.20;1762551;81;21429;-56
2021/07/27 03:32:57;;;;;;;23.67;9.18;;;;;;;20.34;59.19;101136.92;1762360;81;21362;-56
2021/07/27 03:36:04;;;;;;;26.97;9.23;;;;;;;20.37;59.02;101137.34;1762422;81;21351;-56
2021/07/27 03:39:11;;;;;;;20.50;9.58;;;;;;;20.41;59.13;101134.42;1762417;81;21336;-56
2021/07/27 03:42:18;;;;;;;18.90;9.70;;;;;;;20.46;59.42;101141.57;1762452;81;21323;-57
2021/07/27 03:45:26;;;;;;;17.48;8.78;;;;;;;20.51;59.16;101134.80;1762503;81;21236;-57
2021/07/27 03:48:31;;;;;;;19.60;8.98;;;;;;;20.59;59.29;101137.86;1762406;81;21339;-56
2021/07/27 03:51:40;;;;;;;18.05;8.90;;;;;;;20.66;59.43;101133.13;1762549;81;21382;-57
2021/07/27 03:54:46;;;;;;;25.50;9.58;;;;;;;20.73;58.95;101138.09;1762339;81;21413;-57
2021/07/27 03:57:53;;;;;;;16.73;7.80;;;;;;;20.82;59.23;101129.78;1762408;81;21394;-56
2021/07/27 04:00:59;;;;;;;22.05;8.30;;;;;;;20.92;58.88;101129.28;1762265;81;21582;-56
2021/07/27 04:04:08;;;;;;;14.45;7.62;;;;;;;21.00;58.48;101125.73;1762111;81;21697;-56
2021/07/27 04:07:15;;;;;;;18.62;8.23;;;;;;;21.09;58.29;101123.55;1766970;80;21345;-57
2021/07/27 04:10:23;;;;;;;20.90;7.78;;;;;;;21.18;58.04;101124.43;1773026;81;21255;-56
2021/07/27 04:13:32;;;;;;;15.38;7.03;;;;;;;21.24;58.23;101123.52;1757995;80;21219;-57
2021/07/27 04:16:39;;;;;;;16.75;7.00;;;;;;;21.31;58.16;101124.28;1723444;83;21231;-57
2021/07/27 04:19:49;;;;;;;24.35;6.55;;;;;;;21.42;58.03;101123.55;1725718;83;21342;-56
2021/07/27 04:23:00;;;;;;;23.45;6.58;;;;;;;21.52;57.79;101121.63;1725361;83;21184;-57
2021/07/27 04:26:06;;;;;;;18.95;6.80;;;;;;;21.62;57.35;101123.36;1709240;84;21202;-56
2021/07/27 04:29:11;;;;;;;17.60;6.60;;;;;;;21.74;57.27;101125.72;1718544;83;21757;-57
2021/07/27 04:32:18;;;;;;;15.72;5.87;;;;;;;21.84;56.93;101118.55;1778325;80;21188;-57
2021/07/27 04:35:25;;;;;;;18.23;6.05;;;;;;;21.94;56.59;101122.20;1764237;80;21196;-56
2021/07/27 04:38:33;;;;;;;15.85;6.53;;;;;;;22.04;56.00;101121.95;1709614;84;21364;-57
2021/07/27 04:41:42;;;;;;;16.52;7.08;;;;;;;22.15;56.16;101118.39;1709848;84;21274;-58
2021/07/27 04:44:50;;;;;;;12.90;6.15;;;;;;;22.27;56.15;101107.84;1709826;84;21376;-57
2021/07/27 04:47:55;;;;;;;13.68;6.35;;;;;;;22.39;55.98;101109.59;1709849;84;21715;-58
2021/07/27 04:51:02;;;;;;;12.43;6.30;;;;;;;22.50;55.82;101114.38;1734033;82;21713;-58
2021/07/27 04:54:14;;;;;;;12.78;5.67;;;;;;;22.62;55.15;101110.28;1737383;81;21682;-58
2021/07/27 04:57:18;;;;;;;12.82;6.55;;;;;;;22.73;54.32;101111.73;1758963;81;21779;-57
2021/07/27 05:00:35;;;;;;;11.28;5.58;;;;;;;22.85;53.81;101113.17;1734637;80;21322;-56
2021/07/27 05:03:45;;;;;;;12.33;5.72;;;;;;;22.95;53.91;101112.03;1729044;82;21344;-56
2021/07/27 05:06:54;;;;;;;11.20;6.22;;;;;;;23.07;54.21;101121.31;1725719;83;21228;-56
2021/07/27 05:10:04;;;;;;;8.63;6.60;;;;;;;23.18;53.83;101119.08;1700590;81;21296;-56
2021/07/27 05:13:14;;;;;;;11.18;5.72;;;;;;;23.29;53.11;101116.31;1701528;81;21245;-56
2021/07/27 05:16:22;;;;;;;14.33;6.25;;;;;;;23.39;52.66;101118.52;1697975;81;21730;-56
2021/07/27 05:19:28;;;;;;;11.43;5.83;;;;;;;23.48;52.15;101124.08;1700599;82;21756;-56
2021/07/27 05:22:34;;;;;;;15.35;6.20;;;;;;;23.55;52.26;101119.20;1708771;82;21248;-55
2021/07/27 05:25:41;;;;;;;13.93;5.78;;;;;;;23.69;51.92;101126.81;1697995;83;21756;-58
2021/07/27 05:28:47;;;;;;;8.98;5.08;;;;;;;23.78;51.76;101115.55;1699606;83;21216;-59
2021/07/27 05:31:55;;;;;;;10.50;5.17;;;;;;;23.86;51.52;101116.58;1702459;82;21202;-58
2021/07/27 05:35:02;;;;;;;14.30;5.55;;;;;;;23.97;51.33;101118.01;1699512;83;21354;-60
2021/07/27 05:38:08;;;;;;;9.78;5.40;;;;;;;24.06;51.36;101120.72;1701863;82;21850;-62
2021/07/27 05:41:16;;;;;;;8.93;5.10;;;;;;;24.16;51.55;101116.76;1703354;82;21205;-61
2021/07/27 05:44:26;;;;;;;12.58;5.58;;;;;;;24.27;51.34;101117.81;1698466;83;21359;-60
2021/07/27 05:47:33;;;;;;;13.38;5.72;;;;;;;24.37;50.82;101114.67;1703605;82;21196;-58
2021/07/27 05:50:38;;;;;;;13.10;5.15;;;;;;;24.47;50.98;101123.83;1698824;83;21222;-58
2021/07/27 05:53:45;;;;;;;12.75;4.72;;;;;;;24.57;50.71;101116.50;1695897;82;21740;-60
2021/07/27 05:56:51;;;;;;;14.65;4.78;;;;;;;24.67;50.23;101111.69;1670038;85;21806;-60
2021/07/27 06:00:00;;;;;;;12.00;4.97;;;;;;;24.76;49.99;101112.97;1669761;85;21374;-60
2021/07/27 06:03:12;;;;;;;10.28;5.08;;;;;;;24.86;49.99;101115.41;1698838;83;21350;-60
2021/07/27 06:06:22;;;;;;;11.00;5.03;;;;;;;24.97;49.50;101115.06;1698590;84;21366;-58
2021/07/27 06:09:28;;;;;;;11.48;4.37;;;;;;;25.05;49.03;101114.08;1698654;81;21289;-60
2021/07/27 06:12:35;;;;;;;9.33;4.67;;;;;;;25.15;48.83;101117.61;1724303;81;21318;-61
2021/07/27 06:15:44;;;;;;;14.45;4.42;;;;;;;25.25;48.47;101109.94;1762640;80;21244;-60
2021/07/27 06:18:52;;;;;;;6.75;4.28;;;;;;;25.35;48.07;101112.95;1762461;80;21185;-60
2021/07/27 06:22:00;;;;;;;10.48;4.33;;;;;;;25.44;47.50;101110.88;1763335;80;21347;-60
2021/07/27 06:25:10;;;;;;;10.82;4.25;;;;;;;25.54;47.84;101114.39;1762939;80;21402;-60
2021/07/27 06:28:13;;;;;;;10.55;4.22;;;;;;;25.65;47.69;101112.04;1724024;82;21241;-59
2021/07/27 06:31:19;;;;;;;10.88;4.95;;;;;;;25.75;47.08;101113.61;1733961;82;21838;-59
2021/07/27 06:34:27;;;;;;;10.18;4.67;;;;;;;25.86;46.46;101115.45;1716340;82;21342;-61
2021/07/27 06:37:33;;;;;;;8.80;4.35;;;;;;;25.95;46.19;101118.11;1770527;80;21286;-59
2021/07/27 06:40:39;;;;;;;8.90;4.28;;;;;;;26.03;46.06;101119.09;1712587;82;21356;-60
2021/07/27 06:43:49;;;;;;;14.33;4.80;;;;;;;26.11;46.07;101120.92;1759862;81;21193;-60
2021/07/27 06:46:56;;;;;;;7.08;4.28;;;;;;;26.19;46.21;101122.42;1758957;80;21274;-60
2021/07/27 06:50:01;;;;;;;15.80;4.50;;;;;;;26.26;45.40;101119.70;1749249;80;21287;-60
2021/07/27 06:53:07;;;;;;;11.50;4.90;;;;;;;26.34;45.88;101116.44;1773171;80;21382;-60
2021/07/27 06:56:16;;;;;;;16.70;5.37;;;;;;;26.44;45.35;101120.79;1774417;79;21233;-60
2021/07/27 06:59:24;;;;;;;10.65;4.53;;;;;;;26.53;44.85;101119.75;1734099;80;21274;-60
2021/07/27 07:02:34;;;;;;;14.35;4.92;;;;;;;26.62;44.39;101116.79;1758577;81;21206;-61
2021/07/27 07:05:42;;;;;;;19.23;7.25;;;;;;;26.71;44.43;101122.80;1770588;81;21451;-61
2021/07/27 07:08:51;;;;;;;11.73;4.30;;;;;;;26.78;44.71;101106.05;1745677;81;21615;-58
2021/07/27 07:11:59;;;;;;;13.25;4.20;;;;;;;26.89;44.33;101109.80;1755721;81;21178;-59
2021/07/27 07:15:07;;;;;;;13.83;8.63;;;;;;;26.97;43.79;101100.34;1751908;81;21478;-60
2021/07/27 07:18:15;;;;;;;16.70;7.25;;;;;;;27.06;43.76;101109.13;1746335;80;21218;-59
2021/07/27 07:21:22;;;;;;;11.78;4.30;;;;;;;27.12;43.18;101101.88;1741727;80;21244;-60
2021/07/27 07:24:34;;;;;;;17.00;7.30;;;;;;;27.18;42.84;101097.99;1734591;81;21496;-61
2021/07/27 07:27:45;;;;;;;13.05;4.20;;;;;;;27.28;42.89;101094.45;1733762;81;21276;-58
2021/07/27 07:30:56;;;;;;;10.00;3.37;;;;;;;27.36;42.32;101090.61;1745705;80;21267;-58
2021/07/27 07:34:05;;;;;;;9.93;4.05;;;;;;;27.41;42.00;101090.65;1761012;81;21355;-59
2021/07/27 07:37:12;;;;;;;10.28;4.15;;;;;;;27.49;42.71;101099.14;1759396;81;21222;-60
2021/07/27 07:40:20;;;;;;;11.00;4.60;;;;;;;27.57;42.39;101107.94;1745038;81;21394;-61
2021/07/27 07:43:31;;;;;;;7.60;4.17;;;;;;;27.65;42.31;101101.78;1728600;82;21751;-60
2021/07/27 07:46:38;;;;;;;8.23;3.85;;;;;;;27.75;42.42;101099.05;1751840;81;21346;-59
2021/07/27 07:49:50;;;;;;;15.40;4.17;;;;;;;27.84;41.24;101104.44;1765026;80;21354;-59
2021/07/27 07:53:11;;;;;;;9.00;3.77;;;;;;;27.93;40.98;101102.55;1734468;82;21354;-60
2021/07/27 07:56:18;;;;;;;11.12;4.10;;;;;;;28.00;41.38;101104.58;1734043;82;21434;-61
2021/07/27 07:59:23;;;;;;;15.58;4.87;;;;;;;28.09;40.52;101097.30;1745598;81;21376;-60
2021/07/27 08:02:31;;;;;;;8.70;3.50;;;;;;;28.15;39.89;101097.61;1741484;82;21181;-58
2021/07/27 08:05:38;;;;;;;30.15;11.65;;;;;;;28.22;40.59;101100.48;1741605;81;21390;-62
2021/07/27 08:08:48;;;;;;;9.65;4.90;;;;;;;28.27;40.67;101098.25;1741694;82;21899;-60
2021/07/27 08:11:55;;;;;;;10.68;3.67;;;;;;;28.34;39.97;101104.45;1739648;81;21487;-59
2021/07/27 08:15:02;;;;;;;7.80;3.52;;;;;;;28.42;39.35;101102.52;1727392;82;21725;-58
2021/07/27 08:18:08;;;;;;;7.37;3.95;;;;;;;28.49;39.80;101100.34;1733788;82;21698;-59
2021/07/27 08:21:14;;;;;;;10.50;3.20;;;;;;;28.57;38.96;101101.22;1731159;82;21267;-59
2021/07/27 08:24:25;;;;;;;6.97;3.70;;;;;;;28.66;38.13;101106.03;1705749;84;21280;-59
2021/07/27 08:27:42;;;;;;;8.70;3.55;;;;;;;28.72;37.99;101100.69;1709381;82;21288;-58
2021/07/27 08:30:51;;;;;;;11.35;3.60;;;;;;;28.80;37.82;101104.94;1731353;82;21232;-58
2021/07/27 08:33:56;;;;;;;4.67;2.80;;;;;;;28.86;36.97;101101.84;1731602;82;21734;-59
2021/07/27 08:37:04;;;;;;;8.98;3.50;;;;;;;28.95;36.67;101099.34;1697057;83;21892;-59
2021/07/27 08:40:16;;;;;;;9.03;3.40;;;;;;;29.00;36.54;101096.53;1722284;81;21214;-58
2021/07/27 08:43:23;;;;;;;10.15;3.67;;;;;;;29.08;36.50;101096.02;1703635;84;21213;-59
2021/07/27 08:46:28;;;;;;;9.23;3.27;;;;;;;29.17;36.19;101098.00;1703874;83;21828;-59
2021/07/27 08:49:37;;;;;;;10.75;3.20;;;;;;;29.27;35.71;101103.35;1704426;83;21403;-58
2021/07/27 08:52:42;;;;;;;7.53;3.00;;;;;;;29.35;35.38;101098.56;1704523;83;21406;-60
2021/07/27 08:55:50;;;;;;;6.70;3.10;;;;;;;29.44;35.44;101102.50;1703438;83;21392;-59
2021/07/27 08:58:55;;;;;;;10.18;3.27;;;;;;;29.52;34.66;101090.64;1703458;83;21341;-58
2021/07/27 09:02:01;;;;;;;12.63;3.80;;;;;;;29.62;34.92;101100.52;1702997;83;21351;-60
2021/07/27 09:05:16;;;;;;;7.53;3.60;;;;;;;29.68;34.70;101103.09;1701023;84;21233;-62
2021/07/27 09:08:22;;;;;;;6.33;3.12;;;;;;;29.73;34.19;101100.82;1701364;83;21209;-60
2021/07/27 09:11:30;;;;;;;5.87;3.50;;;;;;;29.80;33.78;101100.80;1702700;83;21221;-58
2021/07/27 09:14:40;;;;;;;6.87;2.70;;;;;;;29.87;34.02;101099.09;1683105;84;21200;-60
2021/07/27 09:17:48;;;;;;;10.23;3.35;;;;;;;29.94;33.25;101094.83;1734124;82;21756;-59
2021/07/27 09:21:00;;;;;;;7.10;2.92;;;;;;;29.99;33.06;101086.91;1703556;83;21868;-60
2021/07/27 09:24:08;;;;;;;7.35;3.10;;;;;;;30.06;33.30;101085.50;1697496;84;21722;-59
2021/07/27 09:27:15;;;;;;;5.15;2.65;;;;;;;30.12;33.10;101082.93;1708296;84;21434;-59
2021/07/27 09:30:29;;;;;;;7.08;3.20;;;;;;;30.15;32.74;101073.87;1703168;84;21407;-59
2021/07/27 09:33:39;;;;;;;7.17;2.92;;;;;;;30.23;33.60;101081.79;1690453;83;21190;-60
2021/07/27 09:36:47;;;;;;;4.85;3.02;;;;;;;30.33;32.68;101081.76;1725233;82;21983;-59
2021/07/27 09:39:53;;;;;;;5.95;3.08;;;;;;;30.42;32.65;101072.94;1708203;82;21240;-59
2021/07/27 09:43:02;;;;;;;5.83;2.92;;;;;;;30.53;32.34;101063.83;1716075;82;21200;-60
2021/07/27 09:46:10;;;;;;;5.87;2.83;;;;;;;30.65;32.41;101064.34;1710240;82;21391;-58
2021/07/27 09:49:26;;;;;;;4.75;2.83;;;;;;;30.74;31.52;101057.48;1705094;83;21236;-60
2021/07/27 09:52:36;;;;;;;6.47;3.58;;;;;;;30.76;31.29;101050.45;1726846;83;21363;-60
2021/07/27 09:55:43;;;;;;;9.93;3.22;;;;;;;30.79;31.04;101051.28;1715682;83;21374;-60
2021/07/27 09:58:51;;;;;;;7.83;3.20;;;;;;;30.86;31.18;101049.54;1687462;83;21375;-60
2021/07/27 10:02:11;;;;;;;7.72;3.12;;;;;;;30.94;31.49;101053.16;1696888;84;21316;-56
2021/07/27 10:05:20;;;;;;;8.50;3.17;;;;;;;31.06;31.50;101043.72;1702150;82;21302;-56
2021/07/27 10:08:45;;;;;;;7.50;2.80;;;;;;;31.17;31.59;101041.08;1687861;83;21358;-57
2021/07/27 10:11:54;;;;;;;6.62;2.83;;;;;;;31.29;31.05;101038.14;1700882;83;21342;-58
2021/07/27 10:15:22;;;;;;;6.80;2.50;;;;;;;31.39;31.30;101042.89;1713748;82;21337;-58
2021/07/27 10:18:32;;;;;;;4.70;2.65;;;;;;;31.51;31.17;101051.26;1747275;82;21340;-58
2021/07/27 10:21:40;;;;;;;9.45;2.67;;;;;;;31.56;30.82;101039.89;1768582;79;21213;-57
2021/07/27 10:24:53;;;;;;;4.85;3.00;;;;;;;31.61;29.03;101033.32;1777951;79;21281;-58
2021/07/27 10:28:02;;;;;;;6.58;3.00;;;;;;;31.59;29.28;101038.44;1775250;80;21233;-57
2021/07/27 10:31:12;;;;;;;7.00;2.83;;;;;;;31.59;29.87;101031.36;1757144;80;21220;-59
2021/07/27 10:34:18;;;;;;;4.85;2.87;;;;;;;31.68;29.07;101028.98;1757507;81;21756;-58
2021/07/27 10:37:24;;;;;;;6.92;3.05;;;;;;;31.79;28.91;101016.40;1758545;81;21883;-59
2021/07/27 10:40:38;;;;;;;8.33;3.15;;;;;;;31.91;28.76;101021.69;1789084;79;21342;-57
2021/07/27 10:43:44;;;;;;;9.18;2.80;;;;;;;32.02;28.74;101010.50;1780916;79;21363;-57
2021/07/27 10:46:52;;;;;;;4.60;2.67;;;;;;;32.11;28.95;101010.69;1747458;82;21264;-58
2021/07/27 10:50:10;;;;;;;5.10;2.98;;;;;;;32.23;28.66;101003.99;1756122;80;21201;-58
2021/07/27 10:53:18;;;;;;;6.65;2.98;;;;;;;32.34;28.20;101003.56;1762233;80;21375;-58
2021/07/27 10:56:24;;;;;;;4.78;2.60;;;;;;;32.44;28.25;101005.44;1777821;80;21217;-55
2021/07/27 10:59:35;;;;;;;6.12;2.77;;;;;;;32.47;27.30;100994.34;1777292;80;21213;-55
2021/07/27 11:02:45;;;;;;;6.80;3.05;;;;;;;32.46;27.70;100994.64;1777630;80;21758;-56
2021/07/27 11:05:51;;;;;;;6.67;3.22;;;;;;;32.57;28.56;100985.66;1777863;80;21217;-59
2021/07/27 11:09:11;;;;;;;18.02;5.03;;;;;;;32.75;28.52;100984.81;1777434;80;21781;-58
2021/07/27 11:12:23;;;;;;;7.30;2.92;;;;;;;32.91;28.51;100986.29;1777759;80;21702;-57
2021/07/27 11:15:35;;;;;;;5.00;2.85;;;;;;;33.07;28.56;100986.30;1748915;80;21204;-58
2021/07/27 11:18:48;;;;;;;5.25;3.00;;;;;;;33.17;27.47;100983.27;1715536;83;21264;-59
2021/07/27 11:21:56;;;;;;;8.58;3.17;;;;;;;33.22;26.61;100980.34;1699294;83;21204;-55
2021/07/27 11:25:03;;;;;;;8.08;2.77;;;;;;;33.35;26.16;100980.09;1720629;81;21391;-56
2021/07/27 11:28:22;;;;;;;8.33;3.30;;;;;;;33.44;25.32;100977.42;1726061;83;21686;-57
2021/07/27 11:31:37;;;;;;;9.40;3.08;;;;;;;33.47;25.87;100971.12;1735028;82;21384;-57
2021/07/27 11:34:43;;;;;;;4.33;2.60;;;;;;;33.57;25.82;100970.33;1702745;82;21343;-57
2021/07/27 11:37:52;;;;;;;5.85;2.77;;;;;;;33.70;25.70;100971.53;1688708;83;21216;-56
2021/07/27 11:41:17;;;;;;;8.23;2.75;;;;;;;33.82;25.83;100973.25;1714681;82;21342;-58
2021/07/27 11:44:22;;;;;;;3.33;2.67;;;;;;;33.77;25.40;100973.36;1708804;83;21935;-57
2021/07/27 11:47:31;;;;;;;6.62;2.98;;;;;;;33.50;24.60;100971.91;1676961;83;21823;-56
2021/07/27 11:50:44;;;;;;;6.15;2.98;;;;;;;33.41;24.68;100966.13;1714812;83;21442;-57
2021/07/27 11:53:51;;;;;;;5.62;2.72;;;;;;;33.42;24.63;100971.21;1715074;83;21245;-59
2021/07/27 11:57:04;;;;;;;6.37;3.17;;;;;;;33.38;24.84;100968.11;1714885;82;21699;-58
2021/07/27 12:00:20;;;;;;;4.78;2.90;;;;;;;33.33;25.23;100962.56;1695085;83;21236;-58
2021/07/27 12:03:26;;;;;;;5.83;2.90;;;;;;;33.34;24.50;100962.25;1719062;82;21323;-56
2021/07/27 12:06:32;;;;;;;5.45;3.02;;;;;;;33.43;25.36;100958.72;1721425;83;21236;-58
2021/07/27 12:09:36;;;;;;;5.17;2.67;;;;;;;33.50;25.32;100954.30;1690720;83;22012;-57
2021/07/27 12:12:44;;;;;;;6.33;2.98;;;;;;;33.55;24.88;100950.52;1720983;82;21208;-57
2021/07/27 12:15:52;;;;;;;5.08;2.72;;;;;;;33.52;24.63;100947.73;1702101;82;21367;-55
2021/07/27 12:19:00;;;;;;;3.87;2.70;;;;;;;33.53;25.25;100944.30;1720794;83;21225;-58
2021/07/27 12:22:08;;;;;;;4.80;2.60;;;;;;;33.59;25.06;100945.87;1739045;82;21265;-58
2021/07/27 12:25:15;;;;;;;7.80;3.00;;;;;;;33.61;24.92;100942.15;1739690;82;21830;-57
2021/07/27 12:28:22;;;;;;;4.75;2.90;;;;;;;33.62;26.12;100939.59;1752610;79;21209;-57
2021/07/27 12:31:28;;;;;;;4.17;2.98;;;;;;;33.61;25.00;100935.05;1755704;81;22161;-58
2021/07/27 12:34:36;;;;;;;3.85;2.50;;;;;;;33.54;24.84;100934.64;1770211;81;21737;-56
2021/07/27 12:37:43;;;;;;;4.35;2.47;;;;;;;33.47;24.73;100936.47;1749664;81;21797;-58
2021/07/27 12:40:50;;;;;;;6.42;3.05;;;;;;;33.43;25.02;100931.74;1739830;82;21214;-58
2021/07/27 12:43:58;;;;;;;4.10;2.62;;;;;;;33.33;25.67;100933.57;1742899;81;21230;-57
2021/07/27 12:47:05;;;;;;;4.83;2.42;;;;;;;33.17;26.28;100929.93;1770302;81;21356;-57
2021/07/27 12:50:13;;;;;;;4.55;2.98;;;;;;;33.03;25.89;100925.63;1770528;81;21364;-57
2021/07/27 12:53:22;;;;;;;7.97;3.10;;;;;;;32.91;26.06;100922.45;1754291;80;21909;-57
2021/07/27 12:56:27;;;;;;;5.75;2.98;;;;;;;32.87;26.06;100922.75;1770655;79;21368;-59
2021/07/27 12:59:40;;;;;;;6.55;3.27;;;;;;;32.89;26.33;100917.66;1802016;79;21338;-57
2021/07/27 13:02:45;;;;;;;5.62;2.80;;;;;;;32.94;26.96;100914.73;1786042;79;21335;-57
2021/07/27 13:05:50;;;;;;;6.83;2.87;;;;;;;32.94;25.86;100918.13;1801974;79;21876;-59
2021/07/27 13:08:58;;;;;;;5.87;2.55;;;;;;;32.89;26.19;100906.87;1793300;79;21870;-57
2021/07/27 13:12:06;;;;;;;5.05;2.90;;;;;;;32.84;26.80;100900.68;1739538;82;21221;-56
2021/07/27 13:15:14;;;;;;;7.28;2.90;;;;;;;32.83;26.59;100900.42;1739293;82;21233;-58
2021/07/27 13:18:21;;;;;;;4.45;2.67;;;;;;;32.79;26.25;100897.92;1753561;79;21352;-57
2021/07/27 13:21:31;;;;;;;6.70;2.90;;;;;;;32.78;26.41;100896.25;1767299;81;21364;-57
2021/07/27 13:24:36;;;;;;;6.15;3.22;;;;;;;32.79;25.27;100892.25;1766928;79;21794;-58
2021/07/27 13:27:43;;;;;;;4.45;2.85;;;;;;;32.79;26.12;100892.85;1743528;81;21344;-57
2021/07/27 13:30:51;;;;;;;5.10;2.65;;;;;;;32.78;25.80;100884.91;1767677;81;21234;-58
2021/07/27 13:34:00;;;;;;;4.20;2.92;;;;;;;32.75;25.64;100884.12;1763995;81;21375;-58
2021/07/27 13:37:11;;;;;;;10.38;2.83;;;;;;;32.71;25.72;100888.73;1766073;80;21699;-57
2021/07/27 13:40:16;;;;;;;9.33;3.37;;;;;;;32.65;25.74;100885.70;1766970;80;21404;-59
2021/07/27 13:43:23;;;;;;;5.55;2.75;;;;;;;32.62;25.35;100879.23;1768287;81;21359;-57
2021/07/27 13:46:29;;;;;;;6.65;2.65;;;;;;;32.58;25.26;100869.67;1767810;81;21361;-58
2021/07/27 13:49:37;;;;;;;5.03;2.75;;;;;;;32.55;25.30;100870.30;1772884;81;21358;-55
2021/07/27 13:52:42;;;;;;;5.78;2.85;;;;;;;32.57;26.55;100869.39;1761371;81;21346;-58
2021/07/27 13:55:49;;;;;;;4.12;2.95;;;;;;;32.62;25.54;100866.47;1776469;81;21377;-59
2021/07/27 13:58:54;;;;;;;8.78;3.05;;;;;;;32.70;25.55;100867.18;1776910;81;21346;-57
2021/07/27 14:02:02;;;;;;;10.28;3.40;;;;;;;32.72;25.72;100870.56;1776971;81;21413;-58
2021/07/27 14:05:08;;;;;;;5.40;3.00;;;;;;;32.69;26.10;100861.25;1776922;81;21357;-58
2021/07/27 14:08:17;;;;;;;9.85;3.45;;;;;;;32.71;26.51;100858.11;1777109;81;21353;-59
2021/07/27 14:11:23;;;;;;;6.95;2.80;;;;;;;32.71;25.65;100860.94;1776415;81;21400;-59
2021/07/27 14:14:29;;;;;;;4.83;3.00;;;;;;;32.69;25.76;100862.67;1776396;81;21855;-58
2021/07/27 14:17:40;;;;;;;6.22;3.22;;;;;;;32.69;25.46;100861.81;1775538;80;21863;-59
2021/07/27 14:20:47;;;;;;;11.70;3.37;;;;;;;32.69;25.90;100858.42;1768259;80;21363;-57
2021/07/27 14:23:53;;;;;;;7.15;3.15;;;;;;;32.67;26.02;100860.72;1769345;80;21346;-59
2021/07/27 14:27:02;;;;;;;4.50;2.62;;;;;;;32.66;26.09;100848.27;1767900;80;21232;-58
2021/07/27 14:30:07;;;;;;;4.00;2.98;;;;;;;32.66;25.42;100853.37;1749094;81;21239;-57
2021/07/27 14:33:13;;;;;;;6.20;3.10;;;;;;;32.62;25.02;100853.70;1726103;82;21217;-56
2021/07/27 14:36:18;;;;;;;8.60;2.87;;;;;;;32.58;24.60;100849.83;1721840;83;21578;-57
2021/07/27 14:39:23;;;;;;;6.55;2.92;;;;;;;32.53;24.84;100847.64;1722142;83;21197;-57
2021/07/27 14:42:31;;;;;;;6.60;3.25;;;;;;;32.49;25.36;100843.16;1722263;83;21275;-56
2021/07/27 14:45:37;;;;;;;5.30;2.90;;;;;;;32.47;25.58;100842.64;1731088;82;21465;-57
2021/07/27 14:48:46;;;;;;;7.80;3.52;;;;;;;32.44;25.32;100836.75;1730785;81;21990;-60
2021/07/27 14:51:53;;;;;;;12.43;2.77;;;;;;;32.41;25.44;100837.37;1730186;82;21189;-60